createdAt,value
2022-07-31T00:02:09.123Z,7.70
2022-07-31T00:09:54.127Z,8.80
2022-07-31T00:12:22.592Z,8.38
2022-07-31T00:14:49.998Z,8.60
2022-07-31T00:17:17.427Z,7.03
2022-07-31T00:19:44.989Z,10.35
2022-07-31T00:22:12.982Z,7.35
2022-07-31T00:24:41.509Z,7.18
2022-07-31T00:32:12.891Z,6.95
2022-07-31T00:34:40.638Z,7.20
2022-07-31T00:37:08.114Z,9.32
2022-07-31T00:39:36.404Z,6.43
2022-07-31T00:42:05.172Z,8.40
2022-07-31T00:44:32.711Z,5.22
2022-07-31T00:47:01.974Z,5.72
2022-07-31T00:52:54.962Z,6.90
2022-07-31T00:55:22.730Z,4.90
2022-07-31T00:57:50.497Z,5.47
2022-07-31T01:00:18.383Z,6.22
2022-07-31T01:02:46.513Z,4.85
2022-07-31T01:05:14.787Z,6.60
2022-07-31T01:07:42.222Z,5.43
2022-07-31T01:13:33.341Z,8.68
2022-07-31T01:16:03.390Z,6.72
2022-07-31T01:18:34.529Z,6.72
2022-07-31T01:21:07.173Z,5.88
2022-07-31T01:24:09.960Z,6.75
2022-07-31T01:27:04.427Z,5.53
2022-07-31T01:34:40.170Z,7.38
2022-07-31T01:37:14.402Z,6.80
2022-07-31T01:39:50.770Z,5.60
2022-07-31T01:42:21.367Z,7.57
2022-07-31T01:44:54.759Z,5.90
2022-07-31T01:47:27.186Z,6.55
2022-07-31T01:49:58.854Z,4.88
2022-07-31T01:56:49.860Z,8.48
2022-07-31T01:59:22.800Z,6.40
2022-07-31T02:02:11.855Z,4.57
2022-07-31T02:04:40.027Z,5.90
2022-07-31T02:07:08.026Z,6.22
2022-07-31T02:09:37.748Z,5.88
2022-07-31T02:15:32.176Z,9.25
2022-07-31T02:18:01.446Z,7.43
2022-07-31T02:20:36.599Z,5.90
2022-07-31T02:23:04.299Z,4.72
2022-07-31T02:25:34.673Z,7.93
2022-07-31T02:28:08.539Z,9.82
2022-07-31T02:30:40.749Z,10.35
2022-07-31T02:38:23.745Z,10.13
2022-07-31T02:40:59.174Z,8.68
2022-07-31T02:43:32.262Z,7.60
2022-07-31T02:46:06.952Z,6.95
2022-07-31T02:48:34.833Z,7.30
2022-07-31T02:51:06.680Z,10.05
2022-07-31T02:53:37.026Z,8.32
2022-07-31T03:01:10.952Z,8.20
2022-07-31T03:03:38.958Z,8.57
2022-07-31T03:06:06.663Z,11.10
2022-07-31T03:08:35.536Z,7.10
2022-07-31T03:11:06.869Z,9.65
2022-07-31T03:13:36.670Z,11.48
2022-07-31T03:16:06.991Z,8.02
2022-07-31T03:23:39.116Z,9.63
2022-07-31T03:26:11.145Z,10.35
2022-07-31T03:28:39.664Z,6.82
2022-07-31T03:31:07.758Z,9.90
2022-07-31T03:33:36.616Z,7.82
2022-07-31T03:36:05.028Z,9.52
2022-07-31T03:38:38.935Z,8.60
2022-07-31T03:44:05.086Z,10.82
2022-07-31T03:46:32.705Z,11.18
2022-07-31T03:49:01.361Z,8.50
2022-07-31T03:51:29.563Z,7.03
2022-07-31T03:53:57.082Z,8.60
2022-07-31T03:56:46.493Z,6.93
2022-07-31T04:06:53.178Z,8.15
2022-07-31T04:09:21.500Z,8.40
2022-07-31T04:11:49.933Z,7.55
2022-07-31T04:14:17.555Z,5.60
2022-07-31T04:16:46.273Z,6.55
2022-07-31T04:19:14.214Z,7.65
2022-07-31T04:21:41.752Z,8.63
2022-07-31T04:26:56.585Z,7.20
2022-07-31T04:29:29.885Z,5.95
2022-07-31T04:31:57.722Z,6.05
2022-07-31T04:34:32.579Z,4.82
2022-07-31T04:37:00.221Z,5.30
2022-07-31T04:39:27.759Z,6.65
2022-07-31T04:41:57.496Z,6.85
2022-07-31T04:49:33.074Z,6.47
2022-07-31T04:52:02.601Z,5.13
2022-07-31T04:54:30.419Z,4.65
2022-07-31T04:56:59.750Z,5.57
2022-07-31T04:59:58.585Z,7.35
2022-07-31T05:02:15.305Z,5.75
2022-07-31T05:04:43.663Z,6.30
2022-07-31T05:12:16.264Z,6.20
2022-07-31T05:14:44.193Z,6.18
2022-07-31T05:17:11.914Z,12.27
2022-07-31T05:19:53.130Z,5.10
2022-07-31T05:22:46.808Z,5.63
2022-07-31T05:25:43.790Z,5.97
2022-07-31T05:33:11.265Z,4.68
2022-07-31T05:35:39.260Z,7.07
2022-07-31T05:38:11.805Z,6.40
2022-07-31T05:41:05.584Z,6.60
2022-07-31T05:43:43.713Z,6.80
2022-07-31T05:46:16.715Z,6.78
2022-07-31T05:51:22.870Z,8.60
2022-07-31T05:53:50.568Z,5.88
2022-07-31T05:56:36.883Z,5.55
2022-07-31T05:59:04.721Z,5.13
2022-07-31T06:01:32.473Z,6.35
2022-07-31T06:04:00.211Z,6.90
2022-07-31T06:06:35.207Z,6.13
2022-07-31T06:14:12.626Z,6.95
2022-07-31T06:17:10.383Z,7.43
2022-07-31T06:19:39.618Z,9.43
2022-07-31T06:22:07.736Z,7.50
2022-07-31T06:24:36.923Z,15.50
2022-07-31T06:27:06.189Z,9.30
2022-07-31T06:29:40.129Z,16.00
2022-07-31T06:36:53.428Z,9.48
2022-07-31T06:39:23.030Z,9.93
2022-07-31T06:42:26.788Z,8.77
2022-07-31T06:45:07.535Z,11.10
2022-07-31T06:47:53.559Z,8.48
2022-07-31T06:50:32.526Z,8.48
2022-07-31T06:56:10.872Z,7.55
2022-07-31T06:58:38.549Z,7.47
2022-07-31T07:01:06.168Z,7.60
2022-07-31T07:03:34.631Z,7.45
2022-07-31T07:06:02.994Z,6.78
2022-07-31T07:08:30.577Z,7.13
2022-07-31T07:10:58.393Z,6.93
2022-07-31T07:18:34.664Z,6.82
2022-07-31T07:21:04.682Z,7.30
2022-07-31T07:23:35.707Z,6.82
2022-07-31T07:26:19.533Z,6.22
2022-07-31T07:28:47.647Z,6.45
2022-07-31T07:31:15.412Z,6.43
2022-07-31T07:33:43.963Z,5.45
2022-07-31T07:41:14.997Z,7.75
2022-07-31T07:43:51.487Z,8.27
2022-07-31T07:46:20.101Z,7.80
2022-07-31T07:51:33.352Z,7.43
2022-07-31T07:54:12.374Z,8.82
2022-07-31T08:03:48.262Z,6.03
2022-07-31T08:06:15.049Z,8.68
2022-07-31T08:08:42.694Z,8.07
2022-07-31T08:11:10.410Z,10.77
2022-07-31T08:14:05.762Z,9.65
2022-07-31T08:17:05.811Z,10.40
2022-07-31T08:24:38.117Z,10.35
2022-07-31T08:27:24.183Z,10.88
2022-07-31T08:30:09.217Z,10.15
2022-07-31T08:32:38.041Z,13.68
2022-07-31T08:35:32.139Z,10.80
2022-07-31T08:38:03.714Z,8.40
2022-07-31T08:45:40.200Z,13.85
2022-07-31T08:48:28.164Z,8.93
2022-07-31T08:50:56.097Z,10.05
2022-07-31T08:53:44.278Z,11.43
2022-07-31T08:56:17.293Z,9.45
2022-07-31T08:58:45.396Z,10.43
2022-07-31T09:03:51.207Z,10.60
2022-07-31T09:06:18.919Z,9.80
2022-07-31T09:08:46.876Z,10.43
2022-07-31T09:11:15.137Z,12.43
2022-07-31T09:14:02.055Z,10.23
2022-07-31T09:16:49.763Z,9.27
2022-07-31T09:19:52.650Z,10.80
2022-07-31T09:25:11.354Z,8.93
2022-07-31T09:27:39.111Z,9.80
2022-07-31T09:30:08.674Z,9.00
2022-07-31T09:32:56.811Z,11.02
2022-07-31T09:35:48.510Z,9.82
2022-07-31T09:38:16.709Z,8.32
2022-07-31T09:46:39.975Z,7.60
2022-07-31T09:49:07.847Z,7.72
2022-07-31T09:51:39.560Z,5.32
2022-07-31T09:54:08.824Z,8.20
2022-07-31T09:57:12.141Z,6.15
2022-07-31T09:59:55.984Z,7.18
2022-07-31T10:05:35.113Z,4.82
2022-07-31T10:08:05.546Z,5.70
2022-07-31T10:11:16.626Z,6.20
2022-07-31T10:13:56.589Z,8.05
2022-07-31T10:16:27.926Z,7.18
2022-07-31T10:19:19.924Z,4.07
2022-07-31T10:26:50.733Z,6.90
2022-07-31T10:29:17.769Z,6.07
2022-07-31T10:31:47.109Z,6.35
2022-07-31T10:34:15.492Z,8.13
2022-07-31T10:37:11.207Z,5.82
2022-07-31T10:40:08.031Z,7.03
2022-07-31T10:47:56.277Z,6.60
2022-07-31T10:50:44.685Z,4.95
2022-07-31T10:53:34.624Z,5.78
2022-07-31T10:56:21.912Z,6.50
2022-07-31T10:59:15.494Z,5.95
2022-07-31T11:01:58.996Z,5.28
2022-07-31T11:07:43.059Z,7.28
2022-07-31T11:10:36.847Z,5.25
2022-07-31T11:13:33.794Z,6.40
2022-07-31T11:16:22.782Z,5.45
2022-07-31T11:19:09.531Z,5.50
2022-07-31T11:21:39.971Z,6.65
2022-07-31T11:30:01.550Z,5.95
2022-07-31T11:32:17.767Z,6.70
2022-07-31T11:34:54.705Z,8.98
2022-07-31T11:37:24.359Z,8.73
2022-07-31T11:39:53.965Z,10.43
2022-07-31T11:42:26.530Z,6.28
2022-07-31T11:50:02.470Z,5.68
2022-07-31T11:52:37.247Z,6.00
2022-07-31T11:55:09.452Z,4.82
2022-07-31T12:00:27.090Z,4.93
2022-07-31T12:02:58.188Z,5.78
2022-07-31T12:08:22.709Z,14.10
2022-07-31T12:10:53.068Z,4.82
2022-07-31T12:13:21.802Z,6.35
2022-07-31T12:15:57.261Z,6.43
2022-07-31T12:18:26.477Z,9.57
2022-07-31T12:20:56.196Z,8.65
2022-07-31T12:27:04.169Z,7.50
2022-07-31T12:29:33.478Z,5.97
2022-07-31T12:32:01.549Z,6.65
2022-07-31T12:34:30.369Z,7.95
2022-07-31T12:36:59.744Z,7.03
2022-07-31T12:39:53.827Z,6.85
2022-07-31T12:42:30.603Z,6.15
2022-07-31T12:49:52.171Z,6.75
2022-07-31T12:52:21.211Z,5.43
2022-07-31T12:54:48.880Z,6.63
2022-07-31T12:57:16.856Z,6.90
2022-07-31T12:59:44.442Z,5.78
2022-07-31T13:02:12.365Z,5.78
2022-07-31T13:04:40.083Z,7.57
2022-07-31T13:12:09.103Z,13.05
2022-07-31T13:14:36.814Z,6.07
2022-07-31T13:17:05.392Z,5.53
2022-07-31T13:19:33.406Z,5.30
2022-07-31T13:22:01.204Z,12.55
2022-07-31T13:24:29.158Z,8.40
2022-07-31T13:26:58.740Z,5.90
2022-07-31T13:32:04.172Z,6.25
2022-07-31T13:34:31.740Z,6.07
2022-07-31T13:36:59.496Z,5.32
2022-07-31T13:39:27.154Z,5.88
2022-07-31T13:41:54.856Z,6.82
2022-07-31T13:44:22.529Z,5.50
2022-07-31T13:46:50.396Z,5.57
2022-07-31T13:53:45.935Z,5.10
2022-07-31T13:56:13.561Z,6.22
2022-07-31T13:59:01.130Z,4.90
2022-07-31T14:02:03.780Z,5.40
2022-07-31T14:04:19.195Z,4.95
2022-07-31T14:06:51.755Z,5.82
2022-07-31T14:15:10.362Z,5.25
2022-07-31T14:17:38.014Z,5.35
2022-07-31T14:20:06.837Z,5.53
2022-07-31T14:22:34.600Z,5.60
2022-07-31T14:25:02.362Z,7.43
2022-07-31T14:27:30.723Z,5.85
2022-07-31T14:29:59.324Z,6.03
2022-07-31T14:35:08.294Z,4.85
2022-07-31T14:37:36.909Z,5.88
2022-07-31T14:40:06.006Z,5.25
2022-07-31T14:42:33.911Z,6.35
2022-07-31T14:45:02.984Z,5.05
2022-07-31T14:47:32.810Z,5.75
2022-07-31T14:50:07.192Z,6.70
2022-07-31T14:57:19.946Z,4.43
2022-07-31T14:59:49.980Z,5.10
2022-07-31T15:02:22.128Z,5.72
2022-07-31T15:04:50.161Z,6.40
2022-07-31T15:07:35.328Z,7.30
2022-07-31T15:10:06.745Z,5.78
2022-07-31T15:12:35.224Z,5.57
2022-07-31T15:20:10.283Z,6.57
2022-07-31T15:22:38.081Z,6.85
2022-07-31T15:25:06.725Z,4.65
2022-07-31T15:27:34.366Z,4.40
2022-07-31T15:30:06.752Z,6.68
2022-07-31T15:32:36.639Z,5.05
2022-07-31T15:35:06.469Z,4.40
2022-07-31T15:40:14.021Z,6.35
2022-07-31T15:42:43.127Z,8.10
2022-07-31T15:45:13.386Z,8.38
2022-07-31T15:47:42.469Z,5.95
2022-07-31T15:50:12.048Z,5.55
2022-07-31T15:52:39.803Z,7.10
2022-07-31T15:55:09.092Z,4.55
2022-07-31T16:02:45.495Z,5.43
2022-07-31T16:05:21.431Z,5.43
2022-07-31T16:08:33.096Z,4.38
2022-07-31T16:10:54.287Z,4.40
2022-07-31T16:13:23.472Z,4.97
2022-07-31T16:15:51.350Z,5.13
2022-07-31T16:21:11.144Z,4.30
2022-07-31T16:23:38.766Z,4.47
2022-07-31T16:26:07.280Z,4.13
2022-07-31T16:28:35.083Z,5.28
2022-07-31T16:31:03.102Z,4.82
2022-07-31T16:33:30.685Z,6.15
2022-07-31T16:35:58.341Z,3.85
2022-07-31T16:43:49.828Z,3.75
2022-07-31T16:46:17.046Z,8.02
2022-07-31T16:48:44.784Z,6.97
2022-07-31T16:51:12.494Z,5.20
2022-07-31T16:54:14.499Z,4.80
2022-07-31T16:56:27.835Z,3.55
2022-07-31T17:01:57.185Z,4.47
2022-07-31T17:04:28.702Z,5.35
2022-07-31T17:06:56.526Z,4.20
2022-07-31T17:09:24.338Z,2.90
2022-07-31T17:11:55.000Z,4.43
2022-07-31T17:14:25.177Z,4.13
2022-07-31T17:16:55.478Z,3.40
2022-07-31T17:24:26.526Z,3.20
2022-07-31T17:26:54.751Z,3.95
2022-07-31T17:29:22.437Z,4.03
2022-07-31T17:31:50.093Z,3.53
2022-07-31T17:34:17.734Z,6.28
2022-07-31T17:36:45.395Z,5.72
2022-07-31T17:39:12.981Z,3.67
2022-07-31T17:46:48.008Z,5.13
2022-07-31T17:49:19.637Z,5.30
2022-07-31T17:51:57.656Z,5.85
2022-07-31T17:54:29.694Z,6.43
2022-07-31T17:56:57.252Z,4.00
2022-07-31T17:59:25.646Z,3.92
2022-07-31T18:01:59.016Z,4.30
2022-07-31T18:08:50.301Z,3.78
2022-07-31T18:11:19.585Z,4.13
2022-07-31T18:13:47.935Z,3.22
2022-07-31T18:16:17.044Z,3.42
2022-07-31T18:18:44.921Z,4.35
2022-07-31T18:21:12.896Z,3.58
2022-07-31T18:23:43.496Z,3.88
2022-07-31T18:31:32.102Z,4.05
2022-07-31T18:34:03.493Z,5.60
2022-07-31T18:36:31.584Z,4.68
2022-07-31T18:38:59.235Z,5.47
2022-07-31T18:41:27.302Z,4.30
2022-07-31T18:43:55.107Z,4.57
2022-07-31T18:46:24.195Z,4.57
2022-07-31T18:53:55.535Z,5.57
2022-07-31T18:56:24.126Z,4.80
2022-07-31T18:58:52.097Z,5.18
2022-07-31T19:01:20.457Z,3.97
2022-07-31T19:03:49.250Z,4.63
2022-07-31T19:06:16.909Z,5.25
2022-07-31T19:08:45.570Z,5.80
2022-07-31T19:16:17.628Z,3.90
2022-07-31T19:18:45.743Z,5.15
2022-07-31T19:21:25.038Z,4.53
2022-07-31T19:24:07.218Z,5.65
2022-07-31T19:26:35.029Z,4.57
2022-07-31T19:29:02.572Z,4.32
2022-07-31T19:31:31.074Z,4.05
2022-07-31T19:39:02.339Z,6.75
2022-07-31T19:41:29.974Z,4.75
2022-07-31T19:43:57.575Z,5.22
2022-07-31T19:46:25.147Z,4.57
2022-07-31T19:48:52.851Z,5.82
2022-07-31T19:51:20.469Z,4.97
2022-07-31T19:53:47.947Z,5.00
2022-07-31T20:01:14.930Z,4.95
2022-07-31T20:03:42.936Z,4.45
2022-07-31T20:06:10.806Z,4.07
2022-07-31T20:08:38.323Z,4.65
2022-07-31T20:11:06.270Z,4.45
2022-07-31T20:13:34.310Z,4.25
2022-07-31T20:16:01.980Z,3.45
2022-07-31T20:23:34.371Z,5.22
2022-07-31T20:26:02.226Z,3.47
2022-07-31T20:28:29.765Z,5.05
2022-07-31T20:30:57.606Z,4.55
2022-07-31T20:33:25.163Z,7.68
2022-07-31T20:35:52.704Z,11.82
2022-07-31T20:38:21.849Z,6.03
2022-07-31T20:45:53.221Z,4.82
2022-07-31T20:48:23.283Z,8.52
2022-07-31T20:50:50.866Z,17.42
2022-07-31T20:53:18.853Z,15.00
2022-07-31T20:55:48.586Z,17.42
2022-07-31T20:58:16.585Z,15.60
2022-07-31T21:00:45.044Z,8.52
2022-07-31T21:08:15.893Z,6.18
2022-07-31T21:10:43.528Z,5.45
2022-07-31T21:13:11.076Z,5.32
2022-07-31T21:15:42.990Z,5.57
2022-07-31T21:18:12.941Z,5.63
2022-07-31T21:20:50.059Z,5.30
2022-07-31T21:23:22.566Z,6.40
2022-07-31T21:30:55.350Z,6.20
2022-07-31T21:33:23.415Z,5.88
2022-07-31T21:35:51.656Z,5.60
2022-07-31T21:38:19.844Z,6.47
2022-07-31T21:40:47.754Z,5.40
2022-07-31T21:43:18.717Z,4.60
2022-07-31T21:45:57.232Z,7.80
2022-07-31T21:53:29.034Z,5.13
2022-07-31T21:56:00.744Z,5.85
2022-07-31T21:58:28.193Z,5.35
2022-07-31T22:00:55.749Z,7.05
2022-07-31T22:03:24.806Z,4.45
2022-07-31T22:06:10.308Z,5.90
2022-07-31T22:08:39.434Z,5.50
2022-07-31T22:13:51.452Z,5.75
2022-07-31T22:16:18.977Z,7.38
2022-07-31T22:18:47.882Z,4.57
2022-07-31T22:21:15.821Z,5.00
2022-07-31T22:23:43.579Z,5.30
2022-07-31T22:26:12.092Z,5.57
2022-07-31T22:28:40.402Z,5.75
2022-07-31T22:36:12.700Z,5.72
2022-07-31T22:38:44.395Z,5.15
2022-07-31T22:41:12.772Z,4.45
2022-07-31T22:44:10.132Z,5.30
2022-07-31T22:46:32.485Z,6.78
2022-07-31T22:49:02.279Z,4.43
2022-07-31T22:51:30.684Z,6.35
2022-07-31T22:58:29.245Z,5.13
2022-07-31T23:00:56.856Z,4.97
2022-07-31T23:03:24.310Z,3.83
2022-07-31T23:06:03.071Z,3.70
2022-07-31T23:08:39.366Z,3.20
2022-07-31T23:11:06.854Z,3.97
2022-07-31T23:13:35.070Z,4.38
2022-07-31T23:21:01.984Z,3.42
2022-07-31T23:23:35.923Z,4.22
2022-07-31T23:26:03.622Z,4.95
2022-07-31T23:28:31.448Z,5.55
2022-07-31T23:30:59.055Z,3.58
2022-07-31T23:33:26.767Z,4.18
2022-07-31T23:35:54.254Z,5.47
2022-07-31T23:43:21.197Z,4.22
2022-07-31T23:45:48.655Z,6.13
2022-07-31T23:48:16.525Z,3.22
2022-07-31T23:50:44.601Z,4.32
2022-07-31T23:53:12.163Z,4.07
2022-07-31T23:55:42.798Z,4.38
2022-07-31T23:58:11.049Z,5.53
